Pagina principale
METAR-TAF:

METAR-TAF

Aeroporti :

Hazleton, Pennsylvania, Stati Uniti

latitudine: 40-59-12N, longitudine: 075-59-42W, altezza: 489 m

Osservazione

Il bollettino è stato emesso 6 minuti fa, alle 20:16 UTC
Vento 3 kt da ovest
Temperature 17°C
Umidità 39%
Pressione 1017 hPa
Visibilità: 16.1 km
Nuvoloso ad un'altezza di 4900 ft
Nuvoloso ad un'altezza di 6000 ft
Cielo coperto ad un'altezza di 8000 ft

METAR: KHZL 212016Z AUTO 27003KT 10SM BKN049 BKN060 OVC080 17/03 A3002 RMK AO2

Ora: 16:22 (20:22 UTC)


TAF: mancante

Osservazioni e previsioni meteorologiche di più di 4000 aeroporti (messaggi METAR e TAF).

Le stazioni disponibili sono rappresentate dai dischi gialli e rossi sulla carta.

Puntare il mouse per vedere il nome della stazione.

Clicca sopra per visualizzare le osservazioni e previsioni meteorologiche.

Per cambiare la mappa : fare clic sui pulsanti verdi con una croce nera per ingrandire, il pulsante verde con un trattino per diminuire, o sulla freccia verde per le mappe adiacenti.


METAR-TAF: